createdAt,value
2022-10-18T00:00:07.948Z,29.15
2022-10-18T00:02:41.077Z,29.71
2022-10-18T00:05:11.612Z,29.72
2022-10-18T00:07:42.254Z,29.76
2022-10-18T00:10:13.216Z,29.79
2022-10-18T00:12:43.707Z,29.72
2022-10-18T00:15:14.362Z,29.71
2022-10-18T00:17:45.999Z,29.63
2022-10-18T00:20:16.840Z,29.61
2022-10-18T00:22:47.609Z,29.97
2022-10-18T00:25:18.364Z,29.95
2022-10-18T00:27:48.951Z,29.93
2022-10-18T00:30:19.674Z,30.02
2022-10-18T00:32:50.102Z,30.06
2022-10-18T00:35:20.480Z,30.02
2022-10-18T00:37:50.794Z,30.10
2022-10-18T00:40:21.201Z,30.10
2022-10-18T00:42:52.175Z,30.17
2022-10-18T00:46:30.811Z,30.28
2022-10-18T00:49:05.481Z,29.41
2022-10-18T00:51:54.659Z,29.84
2022-10-18T00:54:26.236Z,30.41
2022-10-18T00:56:57.505Z,30.44
2022-10-18T00:59:28.975Z,30.48
2022-10-18T01:01:59.435Z,30.47
2022-10-18T01:04:30.410Z,30.52
2022-10-18T01:07:35.330Z,29.91
2022-10-18T01:10:19.392Z,30.06
2022-10-18T01:13:12.200Z,30.12
2022-10-18T01:16:19.146Z,30.48
2022-10-18T01:18:59.972Z,30.63
2022-10-18T01:22:03.661Z,30.52
2022-10-18T01:24:37.543Z,30.65
2022-10-18T01:27:16.182Z,30.66
2022-10-18T01:30:23.309Z,30.58
2022-10-18T01:32:59.634Z,30.70
2022-10-18T01:35:36.476Z,30.56
2022-10-18T01:38:13.655Z,30.72
2022-10-18T01:40:47.718Z,30.28
2022-10-18T01:43:20.635Z,30.79
2022-10-18T01:45:52.053Z,30.77
2022-10-18T01:48:22.647Z,30.79
2022-10-18T01:50:55.219Z,30.40
2022-10-18T01:53:33.960Z,30.58
2022-10-18T01:56:22.328Z,30.85
2022-10-18T01:59:15.296Z,30.72
2022-10-18T02:01:55.597Z,30.78
2022-10-18T02:04:43.983Z,30.69
2022-10-18T02:07:39.226Z,30.85
2022-10-18T02:10:23.919Z,30.44
2022-10-18T02:12:57.547Z,30.09
2022-10-18T02:15:50.669Z,30.41
2022-10-18T02:18:26.955Z,30.99
2022-10-18T02:21:00.256Z,30.62
2022-10-18T02:23:32.210Z,31.03
2022-10-18T02:26:02.527Z,30.67
2022-10-18T02:28:33.414Z,31.02
2022-10-18T02:31:19.106Z,31.09
2022-10-18T02:33:59.504Z,30.49
2022-10-18T02:36:44.434Z,30.76
2022-10-18T02:39:37.082Z,31.05
2022-10-18T02:42:08.047Z,30.81
2022-10-18T02:44:39.652Z,31.20
2022-10-18T02:47:12.015Z,30.61
2022-10-18T02:49:42.688Z,31.24
2022-10-18T02:52:13.612Z,31.26
2022-10-18T02:54:43.950Z,31.30
2022-10-18T02:57:14.294Z,31.32
2022-10-18T02:59:44.659Z,31.30
2022-10-18T03:02:15.156Z,31.36
2022-10-18T03:04:45.658Z,31.39
2022-10-18T03:07:16.032Z,31.28
2022-10-18T03:10:41.018Z,31.29
2022-10-18T03:13:11.444Z,31.41
2022-10-18T03:15:41.836Z,31.44
2022-10-18T03:18:12.537Z,31.36
2022-10-18T03:20:43.669Z,31.47
2022-10-18T03:23:14.064Z,31.52
2022-10-18T03:25:46.411Z,31.56
2022-10-18T03:28:17.114Z,31.56
2022-10-18T03:30:47.495Z,31.59
2022-10-18T03:33:17.932Z,31.58
2022-10-18T03:35:48.817Z,31.64
2022-10-18T03:38:19.600Z,31.64
2022-10-18T03:40:50.192Z,31.65
2022-10-18T03:43:20.614Z,31.66
2022-10-18T03:45:51.108Z,31.71
2022-10-18T03:48:21.492Z,31.67
2022-10-18T03:50:51.929Z,31.73
2022-10-18T03:53:22.431Z,31.72
2022-10-18T03:55:56.696Z,31.76
2022-10-18T03:58:27.233Z,31.76
2022-10-18T04:00:57.681Z,31.76
2022-10-18T04:03:28.475Z,31.77
2022-10-18T04:06:06.692Z,31.79
2022-10-18T04:08:38.045Z,31.80
2022-10-18T04:11:13.096Z,31.83
2022-10-18T04:13:43.536Z,31.85
2022-10-18T04:16:13.846Z,31.86
2022-10-18T04:18:44.793Z,31.86
2022-10-18T04:21:15.332Z,31.86
2022-10-18T04:23:45.979Z,31.88
2022-10-18T04:26:17.588Z,31.84
2022-10-18T04:28:48.996Z,31.91
2022-10-18T04:31:19.394Z,31.91
2022-10-18T04:33:50.133Z,31.94
2022-10-18T04:36:20.728Z,31.93
2022-10-18T04:38:51.110Z,31.96
2022-10-18T04:41:21.492Z,31.97
2022-10-18T04:43:53.106Z,31.97
2022-10-18T04:46:23.561Z,31.99
2022-10-18T04:48:54.015Z,31.97
2022-10-18T04:51:24.579Z,31.86
2022-10-18T04:53:54.947Z,31.98
2022-10-18T04:56:25.637Z,31.91
2022-10-18T04:58:56.057Z,31.98
2022-10-18T05:01:27.094Z,32.03
2022-10-18T05:03:57.858Z,32.06
2022-10-18T05:06:28.253Z,32.08
2022-10-18T05:08:58.674Z,32.10
2022-10-18T05:11:29.101Z,32.13
2022-10-18T05:13:59.498Z,32.17
2022-10-18T05:16:29.793Z,32.19
2022-10-18T05:19:00.382Z,32.21
2022-10-18T05:21:30.782Z,32.24
2022-10-18T05:24:01.295Z,32.26
2022-10-18T05:26:32.040Z,32.26
2022-10-18T05:29:02.648Z,32.29
2022-10-18T05:31:33.163Z,32.23
2022-10-18T05:34:03.773Z,32.34
2022-10-18T05:36:35.014Z,32.32
2022-10-18T05:39:06.389Z,32.37
2022-10-18T05:41:37.698Z,32.36
2022-10-18T05:44:08.409Z,32.38
2022-10-18T05:46:38.775Z,32.39
2022-10-18T05:49:09.111Z,32.30
2022-10-18T05:51:39.609Z,32.33
2022-10-18T05:54:15.631Z,31.93
2022-10-18T05:56:46.035Z,32.43
2022-10-18T05:59:16.430Z,32.40
2022-10-18T06:01:46.903Z,32.45
2022-10-18T06:04:19.089Z,32.36
2022-10-18T06:06:49.908Z,32.44
2022-10-18T06:09:20.495Z,32.46
2022-10-18T06:11:51.547Z,32.45
2022-10-18T06:14:21.974Z,32.42
2022-10-18T06:16:52.497Z,32.51
2022-10-18T06:19:23.145Z,32.52
2022-10-18T06:21:57.641Z,32.49
2022-10-18T06:24:28.715Z,32.55
2022-10-18T06:26:59.556Z,32.56
2022-10-18T06:29:30.071Z,32.60
2022-10-18T06:32:00.983Z,32.57
2022-10-18T06:34:31.700Z,32.66
2022-10-18T06:37:02.373Z,32.64
2022-10-18T06:39:32.719Z,32.56
2022-10-18T06:42:03.053Z,32.74
2022-10-18T06:44:37.267Z,32.67
2022-10-18T06:47:09.529Z,32.71
2022-10-18T06:49:39.843Z,32.81
2022-10-18T06:52:10.424Z,32.86
2022-10-18T06:54:41.580Z,32.89
2022-10-18T06:57:12.047Z,32.92
2022-10-18T06:59:42.610Z,32.97
2022-10-18T07:02:21.527Z,32.97
2022-10-18T07:04:52.065Z,33.05
2022-10-18T07:07:22.833Z,33.04
2022-10-18T07:09:53.272Z,33.11
2022-10-18T07:12:23.663Z,33.15
2022-10-18T07:14:54.320Z,33.19
2022-10-18T07:17:24.997Z,33.21
2022-10-18T07:19:56.003Z,33.24
2022-10-18T07:22:30.144Z,33.27
2022-10-18T07:25:01.241Z,33.31
2022-10-18T07:27:32.458Z,33.33
2022-10-18T07:30:02.961Z,33.34
2022-10-18T07:32:33.510Z,33.33
2022-10-18T07:35:04.422Z,33.22
2022-10-18T07:37:35.100Z,33.43
2022-10-18T07:40:06.323Z,33.46
2022-10-18T07:42:37.371Z,33.48
2022-10-18T07:45:09.649Z,33.51
2022-10-18T07:47:40.680Z,33.49
2022-10-18T07:50:11.373Z,33.27
2022-10-18T07:52:41.720Z,33.55
2022-10-18T07:55:15.454Z,33.57
2022-10-18T07:57:46.007Z,33.57
2022-10-18T08:00:16.567Z,33.61
2022-10-18T08:02:46.990Z,33.64
2022-10-18T08:05:17.620Z,33.66
2022-10-18T08:07:48.595Z,33.57
2022-10-18T08:10:19.273Z,33.69
2022-10-18T08:12:50.209Z,33.59
2022-10-18T08:15:22.809Z,33.72
2022-10-18T08:17:54.079Z,33.74
2022-10-18T08:20:31.326Z,33.75
2022-10-18T08:23:02.117Z,33.66
2022-10-18T08:25:33.340Z,33.80
2022-10-18T08:28:03.766Z,33.80
2022-10-18T08:30:34.212Z,33.84
2022-10-18T08:33:05.506Z,33.69
2022-10-18T08:35:36.059Z,33.86
2022-10-18T08:38:06.661Z,33.86
2022-10-18T08:40:37.529Z,33.86
2022-10-18T08:43:31.901Z,33.71
2022-10-18T08:46:02.651Z,33.72
2022-10-18T08:48:55.859Z,33.33
2022-10-18T08:51:39.438Z,33.56
2022-10-18T08:54:36.614Z,33.85
2022-10-18T08:57:16.099Z,33.94
2022-10-18T08:59:46.647Z,33.97
2022-10-18T09:02:29.650Z,33.94
2022-10-18T09:05:26.409Z,33.88
2022-10-18T09:08:20.291Z,33.93
2022-10-18T09:11:22.652Z,33.50
2022-10-18T09:13:58.760Z,33.95
2022-10-18T09:16:51.414Z,33.04
2022-10-18T09:20:10.335Z,33.46
2022-10-18T09:22:43.402Z,33.31
2022-10-18T09:25:19.363Z,33.21
2022-10-18T09:27:57.195Z,33.12
2022-10-18T09:30:38.181Z,33.09
2022-10-18T09:33:15.676Z,32.77
2022-10-18T09:35:58.026Z,32.48
2022-10-18T09:38:37.592Z,32.46
2022-10-18T09:41:24.506Z,32.83
2022-10-18T09:44:25.572Z,33.38
2022-10-18T09:47:12.290Z,32.69
2022-10-18T09:49:53.587Z,33.53
2022-10-18T09:52:47.202Z,33.53
2022-10-18T09:55:26.640Z,33.55
2022-10-18T09:58:02.229Z,33.33
2022-10-18T10:00:54.176Z,33.58
2022-10-18T10:03:27.163Z,33.66
2022-10-18T10:06:12.998Z,33.66
2022-10-18T10:08:45.623Z,33.57
2022-10-18T10:11:41.227Z,33.54
2022-10-18T10:17:06.798Z,33.50
2022-10-18T10:19:37.170Z,33.66
2022-10-18T10:22:13.543Z,33.26
2022-10-18T10:24:58.945Z,33.58
2022-10-18T10:27:47.170Z,33.22
2022-10-18T10:30:28.883Z,33.57
2022-10-18T10:33:16.477Z,33.62
2022-10-18T10:35:53.605Z,33.61
2022-10-18T10:38:29.610Z,33.59
2022-10-18T10:41:01.135Z,33.59
2022-10-18T10:43:39.234Z,33.55
2022-10-18T10:46:14.378Z,33.13
2022-10-18T10:49:27.941Z,33.28
2022-10-18T10:52:09.255Z,33.47
2022-10-18T10:54:51.171Z,33.50
2022-10-18T10:57:27.342Z,32.92
2022-10-18T11:00:00.979Z,33.08
2022-10-18T11:02:34.783Z,33.47
2022-10-18T11:05:47.871Z,33.29
2022-10-18T11:08:24.026Z,33.32
2022-10-18T11:11:03.099Z,33.40
2022-10-18T11:13:49.921Z,32.90
2022-10-18T11:16:55.578Z,32.81
2022-10-18T11:19:56.258Z,32.76
2022-10-18T11:22:29.663Z,32.33
2022-10-18T11:25:00.403Z,32.64
2022-10-18T11:28:17.058Z,32.52
2022-10-18T11:30:47.397Z,32.56
2022-10-18T11:34:06.918Z,32.46
2022-10-18T11:36:33.996Z,32.12
2022-10-18T11:39:35.590Z,32.53
2022-10-18T11:42:31.372Z,32.56
2022-10-18T11:45:07.828Z,32.45
2022-10-18T11:47:42.894Z,32.36
2022-10-18T11:50:34.963Z,32.36
2022-10-18T11:53:25.181Z,31.93
2022-10-18T11:56:14.041Z,32.30
2022-10-18T11:59:09.195Z,32.21
2022-10-18T12:02:22.969Z,32.15
2022-10-18T12:05:25.298Z,31.78
2022-10-18T12:08:14.841Z,32.15
2022-10-18T12:11:04.566Z,32.12
2022-10-18T12:13:48.054Z,32.20
2022-10-18T12:16:45.541Z,32.19
2022-10-18T12:19:31.080Z,31.74
2022-10-18T12:22:15.976Z,31.65
2022-10-18T12:24:46.397Z,32.00
2022-10-18T12:27:18.654Z,31.57
2022-10-18T12:30:00.283Z,31.59
2022-10-18T12:32:42.603Z,32.03
2022-10-18T12:35:25.227Z,32.01
2022-10-18T12:38:07.707Z,32.02
2022-10-18T12:40:45.891Z,31.89
2022-10-18T12:43:39.334Z,31.90
2022-10-18T12:46:16.724Z,31.90
2022-10-18T12:49:05.699Z,31.94
2022-10-18T12:51:36.140Z,31.92
2022-10-18T12:54:11.870Z,31.89
2022-10-18T12:56:44.762Z,31.90
2022-10-18T12:59:18.379Z,31.89
2022-10-18T13:01:54.861Z,31.88
2022-10-18T13:04:34.712Z,31.89
2022-10-18T13:07:35.278Z,31.87
2022-10-18T13:10:13.457Z,31.86
2022-10-18T13:12:48.970Z,31.87
2022-10-18T13:15:40.489Z,31.78
2022-10-18T13:18:34.670Z,31.73
2022-10-18T13:21:22.455Z,31.28
2022-10-18T13:24:17.191Z,31.79
2022-10-18T13:27:24.408Z,31.81
2022-10-18T13:30:19.549Z,30.84
2022-10-18T13:33:18.066Z,31.72
2022-10-18T13:36:22.906Z,31.71
2022-10-18T13:38:58.409Z,31.76
2022-10-18T13:41:35.653Z,31.74
2022-10-18T13:44:41.244Z,31.21
2022-10-18T13:47:33.785Z,31.29
2022-10-18T13:50:26.381Z,31.08
2022-10-18T13:53:09.758Z,31.68
2022-10-18T13:56:04.776Z,31.60
2022-10-18T13:59:18.834Z,31.25
2022-10-18T14:02:30.780Z,31.88
2022-10-18T14:05:31.593Z,31.96
2022-10-18T14:08:26.358Z,31.97
2022-10-18T14:11:11.203Z,32.00
2022-10-18T14:14:15.967Z,32.05
2022-10-18T14:17:03.077Z,31.88
2022-10-18T14:20:06.199Z,32.01
2022-10-18T14:22:49.039Z,32.13
2022-10-18T14:25:44.853Z,32.10
2022-10-18T14:28:27.418Z,32.17
2022-10-18T14:31:22.510Z,31.93
2022-10-18T14:33:58.966Z,31.33
2022-10-18T14:36:50.729Z,31.59
2022-10-18T14:39:28.648Z,31.50
2022-10-18T14:42:00.238Z,31.41
2022-10-18T14:44:36.038Z,31.27
2022-10-18T14:47:22.559Z,30.26
2022-10-18T14:50:02.241Z,31.08
2022-10-18T14:52:38.197Z,31.06
2022-10-18T14:55:28.890Z,30.99
2022-10-18T14:58:01.974Z,30.92
2022-10-18T15:00:38.974Z,29.95
2022-10-18T15:03:17.236Z,30.80
2022-10-18T15:06:10.484Z,30.67
2022-10-18T15:08:49.550Z,30.81
2022-10-18T15:11:21.854Z,30.75
2022-10-18T15:14:11.086Z,30.23
2022-10-18T15:16:48.790Z,30.69
2022-10-18T15:19:20.639Z,30.68
2022-10-18T15:22:03.258Z,30.30
2022-10-18T15:24:45.351Z,30.36
2022-10-18T15:27:32.864Z,30.08
2022-10-18T15:30:16.573Z,30.43
2022-10-18T15:32:57.344Z,30.37
2022-10-18T15:35:35.391Z,29.66
2022-10-18T15:38:30.259Z,30.16
2022-10-18T15:41:02.465Z,30.46
2022-10-18T15:43:34.505Z,30.44
2022-10-18T15:46:07.412Z,30.38
2022-10-18T15:48:42.700Z,30.34
2022-10-18T15:51:49.579Z,30.24
2022-10-18T15:54:33.526Z,30.31
2022-10-18T15:57:11.751Z,30.28
2022-10-18T15:59:54.471Z,29.77
2022-10-18T16:02:26.205Z,30.35
2022-10-18T16:04:56.762Z,30.20
2022-10-18T16:07:27.616Z,30.31
2022-10-18T16:09:58.399Z,30.31
2022-10-18T16:12:28.897Z,29.95
2022-10-18T16:14:59.311Z,30.28
2022-10-18T16:17:29.882Z,30.30
2022-10-18T16:20:00.645Z,30.30
2022-10-18T16:22:33.461Z,30.27
2022-10-18T16:25:07.659Z,30.30
2022-10-18T16:27:38.352Z,30.27
2022-10-18T16:30:15.891Z,30.26
2022-10-18T16:32:47.793Z,30.27
2022-10-18T16:35:17.873Z,29.94
2022-10-18T16:37:48.350Z,30.19
2022-10-18T16:40:26.958Z,30.08
2022-10-18T16:42:57.286Z,30.15
2022-10-18T16:45:28.162Z,30.11
2022-10-18T16:47:58.450Z,30.03
2022-10-18T16:50:31.912Z,30.01
2022-10-18T16:53:03.807Z,30.10
2022-10-18T16:55:35.103Z,30.00
2022-10-18T16:58:05.820Z,30.06
2022-10-18T17:00:36.466Z,30.05
2022-10-18T17:03:07.130Z,30.10
2022-10-18T17:05:38.520Z,30.04
2022-10-18T17:08:09.576Z,30.07
2022-10-18T17:10:40.118Z,30.04
2022-10-18T17:13:10.958Z,30.00
2022-10-18T17:15:43.434Z,29.99
2022-10-18T17:18:21.263Z,29.91
2022-10-18T17:20:52.088Z,29.93
2022-10-18T17:23:22.495Z,29.99
2022-10-18T17:26:05.168Z,29.96
2022-10-18T17:28:39.256Z,29.87
2022-10-18T17:31:09.738Z,29.76
2022-10-18T17:33:40.280Z,29.89
2022-10-18T17:36:10.733Z,29.92
2022-10-18T17:38:41.114Z,29.86
2022-10-18T17:41:13.621Z,29.42
2022-10-18T17:43:43.532Z,29.55
2022-10-18T17:46:15.328Z,29.80
2022-10-18T17:48:45.899Z,29.82
2022-10-18T17:51:18.358Z,29.81
2022-10-18T17:53:48.803Z,29.82
2022-10-18T17:56:19.166Z,29.67
2022-10-18T17:58:52.948Z,29.28
2022-10-18T18:01:24.823Z,28.86
2022-10-18T18:03:59.393Z,29.78
2022-10-18T18:06:40.023Z,29.70
2022-10-18T18:09:14.482Z,29.45
2022-10-18T18:12:14.621Z,29.68
2022-10-18T18:14:45.361Z,29.74
2022-10-18T18:17:18.788Z,29.70
2022-10-18T18:19:51.743Z,29.72
2022-10-18T18:22:22.126Z,29.68
2022-10-18T18:24:52.452Z,29.70
2022-10-18T18:27:23.089Z,29.70
2022-10-18T18:29:53.513Z,29.68
2022-10-18T18:32:23.971Z,29.68
2022-10-18T18:34:54.511Z,29.56
2022-10-18T18:37:25.363Z,29.66
2022-10-18T18:39:55.759Z,29.78
2022-10-18T18:42:26.115Z,29.83
2022-10-18T18:44:56.482Z,29.91
2022-10-18T18:47:28.482Z,29.89
2022-10-18T18:49:59.440Z,29.92
2022-10-18T18:52:30.099Z,29.92
2022-10-18T18:55:00.656Z,29.90
2022-10-18T18:57:31.400Z,29.88
2022-10-18T19:00:01.980Z,29.88
2022-10-18T19:02:32.373Z,29.89
2022-10-18T19:05:03.019Z,29.79
2022-10-18T19:07:33.578Z,29.81
2022-10-18T19:10:04.129Z,29.79
2022-10-18T19:12:34.581Z,29.75
2022-10-18T19:15:05.169Z,29.66
2022-10-18T19:17:35.693Z,29.69
2022-10-18T19:20:07.654Z,29.69
2022-10-18T19:22:39.500Z,29.63
2022-10-18T19:25:10.779Z,29.59
2022-10-18T19:27:41.229Z,29.57
2022-10-18T19:30:13.522Z,29.55
2022-10-18T19:32:44.115Z,29.55
2022-10-18T19:35:14.534Z,29.58
2022-10-18T19:37:44.972Z,29.56
2022-10-18T19:40:15.398Z,29.54
2022-10-18T19:42:46.273Z,29.53
2022-10-18T19:45:16.735Z,29.46
2022-10-18T19:47:47.165Z,29.48
2022-10-18T19:50:17.586Z,29.45
2022-10-18T19:52:48.061Z,29.44
2022-10-18T19:55:19.907Z,29.42
2022-10-18T19:57:50.297Z,29.36
2022-10-18T20:00:21.256Z,29.40
2022-10-18T20:02:51.711Z,29.32
2022-10-18T20:05:22.551Z,29.35
2022-10-18T20:07:52.898Z,29.33
2022-10-18T20:10:23.340Z,29.31
2022-10-18T20:12:53.756Z,29.25
2022-10-18T20:15:24.110Z,29.28
2022-10-18T20:17:54.643Z,29.26
2022-10-18T20:20:25.008Z,29.26
2022-10-18T20:22:55.434Z,29.23
2022-10-18T20:25:26.330Z,29.20
2022-10-18T20:27:56.633Z,29.21
2022-10-18T20:30:27.381Z,29.20
2022-10-18T20:32:57.809Z,29.19
2022-10-18T20:35:28.178Z,29.16
2022-10-18T20:37:58.628Z,29.06
2022-10-18T20:40:29.007Z,29.12
2022-10-18T20:43:03.619Z,28.98
2022-10-18T20:45:34.607Z,29.10
2022-10-18T20:48:05.718Z,29.03
2022-10-18T20:50:36.174Z,29.09
2022-10-18T20:53:06.515Z,29.06
2022-10-18T20:55:40.066Z,28.92
2022-10-18T20:58:11.066Z,29.04
2022-10-18T21:00:41.537Z,29.03
2022-10-18T21:05:47.040Z,28.91
2022-10-18T21:08:17.481Z,28.99
2022-10-18T21:10:47.794Z,28.97
2022-10-18T21:13:18.124Z,28.98
2022-10-18T21:15:56.137Z,28.49
2022-10-18T21:18:31.728Z,28.84
2022-10-18T21:21:19.340Z,28.87
2022-10-18T21:23:50.114Z,28.91
2022-10-18T21:26:28.338Z,28.60
2022-10-18T21:29:01.212Z,28.86
2022-10-18T21:31:37.520Z,28.89
2022-10-18T21:34:16.661Z,28.90
2022-10-18T21:36:48.498Z,28.77
2022-10-18T21:41:57.561Z,28.83
2022-10-18T21:44:27.939Z,28.84
2022-10-18T21:46:58.644Z,28.82
2022-10-18T21:49:30.659Z,28.82
2022-10-18T21:52:04.502Z,28.79
2022-10-18T21:54:34.877Z,28.80
2022-10-18T21:57:05.278Z,28.81
2022-10-18T21:59:35.665Z,28.79
2022-10-18T22:02:06.403Z,28.77
2022-10-18T22:04:37.584Z,28.71
2022-10-18T22:07:08.024Z,28.76
2022-10-18T22:09:38.461Z,28.72
2022-10-18T22:12:10.843Z,28.72
2022-10-18T22:14:41.487Z,28.70
2022-10-18T22:17:11.916Z,28.64
2022-10-18T22:19:44.494Z,28.67
2022-10-18T22:22:14.860Z,28.23
2022-10-18T22:24:45.526Z,28.58
2022-10-18T22:27:15.936Z,28.59
2022-10-18T22:29:46.408Z,28.56
2022-10-18T22:32:17.231Z,28.61
2022-10-18T22:34:47.660Z,28.45
2022-10-18T22:37:18.101Z,28.48
2022-10-18T22:39:48.661Z,28.54
2022-10-18T22:42:18.991Z,28.59
2022-10-18T22:44:49.327Z,28.63
2022-10-18T22:47:19.782Z,28.68
2022-10-18T22:49:50.224Z,28.72
2022-10-18T22:52:20.751Z,28.77
2022-10-18T22:54:51.076Z,28.80
2022-10-18T22:57:21.467Z,28.73
2022-10-18T22:59:51.852Z,28.90
2022-10-18T23:02:22.226Z,29.03
2022-10-18T23:04:52.909Z,29.05
2022-10-18T23:07:23.807Z,29.10
2022-10-18T23:09:54.253Z,29.13
2022-10-18T23:12:24.659Z,29.21
2022-10-18T23:14:55.468Z,29.24
2022-10-18T23:17:25.858Z,29.25
2022-10-18T23:19:56.318Z,29.30
2022-10-18T23:22:26.707Z,29.33
2022-10-18T23:24:57.366Z,29.37
2022-10-18T23:27:27.815Z,29.39
2022-10-18T23:29:58.553Z,29.42
2022-10-18T23:32:29.578Z,29.47
2022-10-18T23:34:59.984Z,29.49
2022-10-18T23:37:30.425Z,29.38
2022-10-18T23:40:01.427Z,29.56
2022-10-18T23:42:32.263Z,29.57
2022-10-18T23:45:02.896Z,29.56
2022-10-18T23:47:34.087Z,29.65
2022-10-18T23:50:04.980Z,29.57
2022-10-18T23:52:35.493Z,29.71
2022-10-18T23:55:06.369Z,29.72
2022-10-18T23:57:38.771Z,29.62
